Pattonville Airfield

EDTQ · 巴登-符腾堡, 德国

罗盘
风向 的 风向 的 风向 到 风向 200° Pattonville Airport 10/28
风: 3 kt, 1 beaufort

1 kt

3 kt
改变
0 1.000 2.000 3.000 4.000 5.000
SCT 1.100 ft
OVC 4.700 ft
SPECI EDTY 060220Z AUTO 20003KT 170V240 9000 // SCT011/// OVC047/// 03/02 Q1018

METAR Pattonville Airport - EDTQ

Pattonville Airport是,德国中的小机场。 该机场有一条跑道: 10/28. 该领域的国际民航组织标志是EDTQ.

这份报告是针对2022年12月6日 03:20, 当地时间在Adolf Würth Airport进行的。

机场观察

风向为200°,速度为3 kt。 风向在170°和240°之间变化。

可见度为9 km。

有疏云,零星散落的云朵在1.100 ft的高度 和 乌云密布在4.700 ft的高度。 破损或更高的上限为4.700 ft。

温度为3 °C,阵风为0 °C。 露点为2 °C,相对湿度为93%。 海平面上的气压为1018 hPa (QNH)。

白天

今天,太阳从08:01升起,在16:27降落。 这适用于Pattonville Airport,世界夏令时可能有所不同。 当地时间与世界标准时间之间的时差为+1 小时。 当前,没有夏令时有效。

公司介绍

我们没有关于这个机场的公司信息。

体会

到Vliegles.nl去找飞行课程,跳伞和其他飞行体验。 浏览页面,了解Pattonville Airport附近所有可用的活动。 你也可以使用搜索功能来寻找你所在地附近的特定飞行课程、跳伞或其他飞行体验。

跑道

Id 标题 侧风 逆风 侧风 %
10/28 100°-280° 3 kt 98 %

逆风成分最大的方向会被突出显示,并用于横风计算。 这并不一定意味着这个方向在使用。

乌云

1.100 ft SCT 疏云,零星散落的云朵
4.700 ft OVC 乌云密布

温度 & 天气

温度 3 °C
露点 2 °C
相对湿度 93%
风寒 0 °C
Kp-index 0 (0-9)

白天

日出
07:59 (3:42)
中午
12:11
日落
16:23

小工具

你想在你的网站上有一个关于Pattonville Airport的当前航空天气(METAR)的小部件吗?

显示HTML代码

我们和第三方通过cookies跟踪您在我们网站上的互联网行为。如果你继续,我们认为你同意我们的饼干政策